sensor_id;sensor_type;location;lat;lon;timestamp;pressure;altitude;pressure_sealevel;temperature;humidity
26376;BME280;30544;42.196;24.336;2023-02-19T00:01:19;99339.53;;;9.83;53.78
26376;BME280;30544;42.196;24.336;2023-02-19T00:03:48;99325.31;;;9.79;53.99
26376;BME280;30544;42.196;24.336;2023-02-19T00:06:16;99322.31;;;9.92;53.75
26376;BME280;30544;42.196;24.336;2023-02-19T00:08:44;99328.44;;;9.83;53.85
26376;BME280;30544;42.196;24.336;2023-02-19T00:11:12;99321.34;;;9.99;53.67
26376;BME280;30544;42.196;24.336;2023-02-19T00:13:40;99313.16;;;9.80;53.76
26376;BME280;30544;42.196;24.336;2023-02-19T00:16:14;99308.09;;;9.77;53.80
26376;BME280;30544;42.196;24.336;2023-02-19T00:18:41;99305.56;;;9.76;53.90
26376;BME280;30544;42.196;24.336;2023-02-19T00:21:09;99309.53;;;9.80;53.93
26376;BME280;30544;42.196;24.336;2023-02-19T00:23:36;99302.03;;;9.57;55.53
26376;BME280;30544;42.196;24.336;2023-02-19T00:26:04;99292.06;;;9.79;54.84
26376;BME280;30544;42.196;24.336;2023-02-19T00:28:32;99300.97;;;9.70;54.75
26376;BME280;30544;42.196;24.336;2023-02-19T00:31:03;99296.63;;;9.74;54.19
26376;BME280;30544;42.196;24.336;2023-02-19T00:33:32;99283.16;;;9.77;53.65
26376;BME280;30544;42.196;24.336;2023-02-19T00:36:00;99283.41;;;9.76;53.98
26376;BME280;30544;42.196;24.336;2023-02-19T00:38:27;99278.09;;;9.86;53.64
26376;BME280;30544;42.196;24.336;2023-02-19T00:40:54;99282.78;;;9.74;53.85
26376;BME280;30544;42.196;24.336;2023-02-19T00:43:20;99280.13;;;9.67;55.31
26376;BME280;30544;42.196;24.336;2023-02-19T00:45:47;99268.94;;;9.74;54.87
26376;BME280;30544;42.196;24.336;2023-02-19T00:48:14;99283.28;;;9.59;55.59
26376;BME280;30544;42.196;24.336;2023-02-19T00:50:42;99287.97;;;9.58;54.84
26376;BME280;30544;42.196;24.336;2023-02-19T00:53:09;99281.09;;;9.61;54.88
26376;BME280;30544;42.196;24.336;2023-02-19T00:55:36;99272.06;;;9.54;55.76
26376;BME280;30544;42.196;24.336;2023-02-19T00:58:03;99289.91;;;9.58;54.61
26376;BME280;30544;42.196;24.336;2023-02-19T01:00:30;99289.03;;;9.46;55.64
26376;BME280;30544;42.196;24.336;2023-02-19T01:02:58;99281.66;;;9.28;56.50
26376;BME280;30544;42.196;24.336;2023-02-19T01:05:24;99280.81;;;9.27;56.16
26376;BME280;30544;42.196;24.336;2023-02-19T01:07:52;99282.75;;;9.39;55.92
26376;BME280;30544;42.196;24.336;2023-02-19T01:10:19;99280.38;;;9.42;56.73
26376;BME280;30544;42.196;24.336;2023-02-19T01:12:46;99277.31;;;9.20;56.97
26376;BME280;30544;42.196;24.336;2023-02-19T01:15:13;99279.03;;;9.33;56.21
26376;BME280;30544;42.196;24.336;2023-02-19T01:17:39;99282.75;;;9.39;56.61
26376;BME280;30544;42.196;24.336;2023-02-19T01:20:07;99283.13;;;9.30;56.29
26376;BME280;30544;42.196;24.336;2023-02-19T01:22:34;99282.34;;;9.23;57.23
26376;BME280;30544;42.196;24.336;2023-02-19T01:25:05;99295.88;;;9.31;56.55
26376;BME280;30544;42.196;24.336;2023-02-19T01:27:32;99292.53;;;9.41;55.80
26376;BME280;30544;42.196;24.336;2023-02-19T01:29:59;99288.06;;;9.40;56.68
26376;BME280;30544;42.196;24.336;2023-02-19T01:32:25;99283.47;;;9.34;55.72
26376;BME280;30544;42.196;24.336;2023-02-19T01:34:52;99279.00;;;9.21;56.66
26376;BME280;30544;42.196;24.336;2023-02-19T01:37:19;99270.25;;;9.24;56.54
26376;BME280;30544;42.196;24.336;2023-02-19T01:39:48;99256.03;;;9.32;55.82
26376;BME280;30544;42.196;24.336;2023-02-19T01:42:16;99251.84;;;9.42;55.11
26376;BME280;30544;42.196;24.336;2023-02-19T01:45:14;99254.63;;;9.42;56.00
26376;BME280;30544;42.196;24.336;2023-02-19T01:47:44;99248.44;;;9.40;55.00
26376;BME280;30544;42.196;24.336;2023-02-19T01:50:12;99255.19;;;9.55;54.51
26376;BME280;30544;42.196;24.336;2023-02-19T01:52:39;99257.28;;;9.60;54.57
26376;BME280;30544;42.196;24.336;2023-02-19T01:55:07;99268.34;;;9.60;54.43
26376;BME280;30544;42.196;24.336;2023-02-19T01:57:40;99257.75;;;9.69;54.84
26376;BME280;30544;42.196;24.336;2023-02-19T02:00:12;99264.34;;;9.56;54.54
26376;BME280;30544;42.196;24.336;2023-02-19T02:02:41;99249.81;;;9.60;55.16
26376;BME280;30544;42.196;24.336;2023-02-19T02:05:14;99251.47;;;9.50;55.31
26376;BME280;30544;42.196;24.336;2023-02-19T02:07:45;99249.91;;;9.42;54.81
26376;BME280;30544;42.196;24.336;2023-02-19T02:10:29;99260.16;;;9.42;55.18
26376;BME280;30544;42.196;24.336;2023-02-19T02:12:57;99254.47;;;9.25;55.34
26376;BME280;30544;42.196;24.336;2023-02-19T02:15:27;99251.34;;;9.33;55.29
26376;BME280;30544;42.196;24.336;2023-02-19T02:17:58;99265.75;;;9.23;55.76
26376;BME280;30544;42.196;24.336;2023-02-19T02:20:35;99262.63;;;9.08;56.15
26376;BME280;30544;42.196;24.336;2023-02-19T02:23:12;99256.09;;;9.02;57.03
26376;BME280;30544;42.196;24.336;2023-02-19T02:25:58;99264.78;;;9.18;55.90
26376;BME280;30544;42.196;24.336;2023-02-19T02:29:00;99270.97;;;8.90;56.24
26376;BME280;30544;42.196;24.336;2023-02-19T02:31:34;99267.56;;;8.76;56.71
26376;BME280;30544;42.196;24.336;2023-02-19T02:34:08;99269.38;;;8.82;56.67
26376;BME280;30544;42.196;24.336;2023-02-19T02:36:40;99265.66;;;8.77;57.22
26376;BME280;30544;42.196;24.336;2023-02-19T02:39:12;99264.22;;;8.74;57.91
26376;BME280;30544;42.196;24.336;2023-02-19T02:41:41;99280.41;;;8.70;58.06
26376;BME280;30544;42.196;24.336;2023-02-19T02:44:09;99279.34;;;8.53;58.25
26376;BME280;30544;42.196;24.336;2023-02-19T02:46:40;99283.56;;;8.56;58.01
26376;BME280;30544;42.196;24.336;2023-02-19T02:49:11;99282.72;;;8.55;58.26
26376;BME280;30544;42.196;24.336;2023-02-19T02:51:42;99283.19;;;8.52;59.09
26376;BME280;30544;42.196;24.336;2023-02-19T02:54:14;99282.91;;;8.60;57.82
26376;BME280;30544;42.196;24.336;2023-02-19T02:56:59;99289.34;;;8.54;58.15
26376;BME280;30544;42.196;24.336;2023-02-19T02:59:30;99293.19;;;8.53;58.25
26376;BME280;30544;42.196;24.336;2023-02-19T03:02:02;99291.38;;;8.47;58.64
26376;BME280;30544;42.196;24.336;2023-02-19T03:04:43;99292.88;;;8.61;57.52
26376;BME280;30544;42.196;24.336;2023-02-19T03:07:34;99308.94;;;8.53;58.03
26376;BME280;30544;42.196;24.336;2023-02-19T03:10:05;99320.59;;;8.36;58.81
26376;BME280;30544;42.196;24.336;2023-02-19T03:12:34;99319.09;;;8.40;58.39
26376;BME280;30544;42.196;24.336;2023-02-19T03:15:20;99314.41;;;8.41;58.59
26376;BME280;30544;42.196;24.336;2023-02-19T03:18:09;99309.56;;;8.36;58.76
26376;BME280;30544;42.196;24.336;2023-02-19T03:20:56;99324.69;;;8.34;59.14
26376;BME280;30544;42.196;24.336;2023-02-19T03:23:27;99310.56;;;8.24;59.20
26376;BME280;30544;42.196;24.336;2023-02-19T03:26:09;99312.84;;;8.27;59.59
26376;BME280;30544;42.196;24.336;2023-02-19T03:28:39;99314.16;;;8.24;58.98
26376;BME280;30544;42.196;24.336;2023-02-19T03:31:27;99302.94;;;8.01;59.77
26376;BME280;30544;42.196;24.336;2023-02-19T03:33:58;99315.16;;;8.11;59.80
26376;BME280;30544;42.196;24.336;2023-02-19T03:36:33;99310.75;;;8.22;58.95
26376;BME280;30544;42.196;24.336;2023-02-19T03:39:03;99312.94;;;8.38;58.36
26376;BME280;30544;42.196;24.336;2023-02-19T03:41:35;99321.28;;;8.32;58.59
26376;BME280;30544;42.196;24.336;2023-02-19T03:44:08;99321.28;;;8.32;58.39
26376;BME280;30544;42.196;24.336;2023-02-19T03:46:43;99335.72;;;8.52;58.76
26376;BME280;30544;42.196;24.336;2023-02-19T03:49:17;99337.97;;;8.62;58.61
26376;BME280;30544;42.196;24.336;2023-02-19T03:51:50;99337.19;;;8.55;57.71
26376;BME280;30544;42.196;24.336;2023-02-19T03:54:22;99335.72;;;8.52;58.35
26376;BME280;30544;42.196;24.336;2023-02-19T03:56:59;99345.91;;;8.40;59.09
26376;BME280;30544;42.196;24.336;2023-02-19T03:59:32;99351.69;;;8.32;59.09
26376;BME280;30544;42.196;24.336;2023-02-19T04:02:04;99357.66;;;8.29;58.89
26376;BME280;30544;42.196;24.336;2023-02-19T04:04:36;99356.84;;;8.47;58.17
26376;BME280;30544;42.196;24.336;2023-02-19T04:07:04;99353.03;;;8.23;58.81
26376;BME280;30544;42.196;24.336;2023-02-19T04:09:36;99351.09;;;8.05;60.18
26376;BME280;30544;42.196;24.336;2023-02-19T04:12:04;99342.38;;;8.08;60.41
26376;BME280;30544;42.196;24.336;2023-02-19T04:14:35;99353.97;;;8.17;60.18
26376;BME280;30544;42.196;24.336;2023-02-19T04:17:08;99353.44;;;8.08;60.19
26376;BME280;30544;42.196;24.336;2023-02-19T04:19:41;99363.31;;;7.97;60.03
26376;BME280;30544;42.196;24.336;2023-02-19T04:22:09;99364.31;;;8.21;59.70
26376;BME280;30544;42.196;24.336;2023-02-19T04:24:39;99360.38;;;8.35;59.43
26376;BME280;30544;42.196;24.336;2023-02-19T04:27:09;99368.97;;;8.27;59.40
26376;BME280;30544;42.196;24.336;2023-02-19T04:29:36;99367.81;;;8.35;59.37
26376;BME280;30544;42.196;24.336;2023-02-19T04:32:03;99367.38;;;8.38;58.99
26376;BME280;30544;42.196;24.336;2023-02-19T04:34:30;99380.50;;;8.42;58.53
26376;BME280;30544;42.196;24.336;2023-02-19T04:36:58;99383.34;;;8.54;57.95
26376;BME280;30544;42.196;24.336;2023-02-19T04:39:25;99383.56;;;8.53;58.64
26376;BME280;30544;42.196;24.336;2023-02-19T04:41:52;99400.53;;;8.56;58.56
26376;BME280;30544;42.196;24.336;2023-02-19T04:44:19;99391.63;;;8.54;58.54
26376;BME280;30544;42.196;24.336;2023-02-19T04:46:46;99393.50;;;8.42;59.13
26376;BME280;30544;42.196;24.336;2023-02-19T04:49:13;99394.25;;;8.49;58.75
26376;BME280;30544;42.196;24.336;2023-02-19T04:51:39;99387.59;;;8.57;57.87
26376;BME280;30544;42.196;24.336;2023-02-19T04:54:08;99395.31;;;8.85;57.52
26376;BME280;30544;42.196;24.336;2023-02-19T04:56:34;99398.38;;;8.95;56.61
26376;BME280;30544;42.196;24.336;2023-02-19T04:59:01;99411.63;;;8.74;57.17
26376;BME280;30544;42.196;24.336;2023-02-19T05:01:29;99408.22;;;8.72;57.25
26376;BME280;30544;42.196;24.336;2023-02-19T05:03:56;99413.31;;;8.76;57.92
26376;BME280;30544;42.196;24.336;2023-02-19T05:06:22;99411.66;;;8.86;56.75
26376;BME280;30544;42.196;24.336;2023-02-19T05:08:49;99418.84;;;8.76;57.69
26376;BME280;30544;42.196;24.336;2023-02-19T05:11:17;99422.44;;;8.76;57.54
26376;BME280;30544;42.196;24.336;2023-02-19T05:13:44;99437.41;;;8.87;56.60
26376;BME280;30544;42.196;24.336;2023-02-19T05:16:13;99443.16;;;8.85;56.22
26376;BME280;30544;42.196;24.336;2023-02-19T05:18:42;99444.16;;;8.72;57.06
26376;BME280;30544;42.196;24.336;2023-02-19T05:21:09;99446.31;;;8.70;57.21
26376;BME280;30544;42.196;24.336;2023-02-19T05:23:36;99453.94;;;8.75;57.45
26376;BME280;30544;42.196;24.336;2023-02-19T05:26:04;99459.25;;;8.58;57.83
26376;BME280;30544;42.196;24.336;2023-02-19T05:28:33;99457.09;;;8.79;57.85
26376;BME280;30544;42.196;24.336;2023-02-19T05:31:04;99450.75;;;8.90;56.53
26376;BME280;30544;42.196;24.336;2023-02-19T05:33:31;99446.47;;;8.94;56.14
26376;BME280;30544;42.196;24.336;2023-02-19T05:35:58;99456.75;;;9.05;56.55
26376;BME280;30544;42.196;24.336;2023-02-19T05:38:25;99468.97;;;9.16;55.60
26376;BME280;30544;42.196;24.336;2023-02-19T05:40:52;99469.19;;;9.14;55.26
26376;BME280;30544;42.196;24.336;2023-02-19T05:43:18;99471.47;;;9.35;55.62
26376;BME280;30544;42.196;24.336;2023-02-19T05:45:47;99466.66;;;9.31;56.10
26376;BME280;30544;42.196;24.336;2023-02-19T05:48:14;99472.31;;;9.36;54.95
26376;BME280;30544;42.196;24.336;2023-02-19T05:50:40;99478.09;;;9.34;55.34
26376;BME280;30544;42.196;24.336;2023-02-19T05:53:08;99474.78;;;9.44;54.82
26376;BME280;30544;42.196;24.336;2023-02-19T05:55:35;99478.63;;;9.43;54.70
26376;BME280;30544;42.196;24.336;2023-02-19T05:58:02;99474.47;;;9.64;54.26
26376;BME280;30544;42.196;24.336;2023-02-19T06:00:29;99477.06;;;9.89;53.46
26376;BME280;30544;42.196;24.336;2023-02-19T06:02:59;99478.91;;;10.07;53.08
26376;BME280;30544;42.196;24.336;2023-02-19T06:05:26;99483.25;;;10.03;53.72
26376;BME280;30544;42.196;24.336;2023-02-19T06:07:53;99487.22;;;10.07;52.93
26376;BME280;30544;42.196;24.336;2023-02-19T06:10:19;99490.41;;;10.10;52.91
26376;BME280;30544;42.196;24.336;2023-02-19T06:12:46;99487.75;;;10.15;53.66
26376;BME280;30544;42.196;24.336;2023-02-19T06:15:13;99491.81;;;10.01;53.25
26376;BME280;30544;42.196;24.336;2023-02-19T06:17:40;99498.47;;;10.12;53.16
26376;BME280;30544;42.196;24.336;2023-02-19T06:20:09;99497.94;;;10.45;52.23
26376;BME280;30544;42.196;24.336;2023-02-19T06:22:37;99500.34;;;10.53;52.59
26376;BME280;30544;42.196;24.336;2023-02-19T06:25:04;99503.59;;;10.62;51.92
26376;BME280;30544;42.196;24.336;2023-02-19T06:27:32;99498.03;;;10.73;51.38
26376;BME280;30544;42.196;24.336;2023-02-19T06:29:59;99495.25;;;10.97;50.69
26376;BME280;30544;42.196;24.336;2023-02-19T06:32:26;99495.47;;;11.07;49.77
26376;BME280;30544;42.196;24.336;2023-02-19T06:34:52;99488.38;;;11.39;49.30
26376;BME280;30544;42.196;24.336;2023-02-19T06:37:20;99486.41;;;11.52;48.79
26376;BME280;30544;42.196;24.336;2023-02-19T06:39:47;99481.81;;;11.74;48.43
26376;BME280;30544;42.196;24.336;2023-02-19T06:42:15;99486.13;;;11.93;48.01
26376;BME280;30544;42.196;24.336;2023-02-19T06:44:42;99482.19;;;12.23;47.42
26376;BME280;30544;42.196;24.336;2023-02-19T06:47:08;99481.34;;;12.22;47.21
26376;BME280;30544;42.196;24.336;2023-02-19T06:49:35;99488.84;;;12.55;45.74
26376;BME280;30544;42.196;24.336;2023-02-19T06:52:04;99486.63;;;12.57;45.99
26376;BME280;30544;42.196;24.336;2023-02-19T06:54:32;99480.56;;;12.77;45.28
26376;BME280;30544;42.196;24.336;2023-02-19T06:56:59;99479.38;;;12.73;45.37
26376;BME280;30544;42.196;24.336;2023-02-19T06:59:26;99486.53;;;12.86;45.11
26376;BME280;30544;42.196;24.336;2023-02-19T07:01:53;99475.34;;;13.03;44.52
26376;BME280;30544;42.196;24.336;2023-02-19T07:04:20;99482.31;;;13.22;44.36
26376;BME280;30544;42.196;24.336;2023-02-19T07:06:46;99491.25;;;13.46;43.46
26376;BME280;30544;42.196;24.336;2023-02-19T07:09:13;99490.25;;;13.79;43.25
26376;BME280;30544;42.196;24.336;2023-02-19T07:11:41;99496.41;;;13.81;42.97
26376;BME280;30544;42.196;24.336;2023-02-19T07:14:13;99496.75;;;13.90;43.13
26376;BME280;30544;42.196;24.336;2023-02-19T07:16:40;99491.97;;;13.85;43.25
26376;BME280;30544;42.196;24.336;2023-02-19T07:19:09;99490.72;;;13.98;43.80
26376;BME280;30544;42.196;24.336;2023-02-19T07:21:36;99491.06;;;14.06;43.40
26376;BME280;30544;42.196;24.336;2023-02-19T07:24:03;99492.97;;;14.28;42.49
26376;BME280;30544;42.196;24.336;2023-02-19T07:26:30;99487.53;;;14.11;42.18
26376;BME280;30544;42.196;24.336;2023-02-19T07:28:59;99496.72;;;14.43;41.76
26376;BME280;30544;42.196;24.336;2023-02-19T07:31:27;99494.84;;;14.49;42.22
26376;BME280;30544;42.196;24.336;2023-02-19T07:33:54;99494.97;;;14.64;42.04
26376;BME280;30544;42.196;24.336;2023-02-19T07:36:22;99497.91;;;14.90;41.58
26376;BME280;30544;42.196;24.336;2023-02-19T07:38:52;99489.25;;;15.44;40.82
26376;BME280;30544;42.196;24.336;2023-02-19T07:41:20;99485.41;;;15.50;40.12
26376;BME280;30544;42.196;24.336;2023-02-19T07:43:47;99487.72;;;15.73;40.07
26376;BME280;30544;42.196;24.336;2023-02-19T07:46:15;99485.50;;;15.75;40.12
26376;BME280;30544;42.196;24.336;2023-02-19T07:48:42;99480.53;;;16.08;39.90
26376;BME280;30544;42.196;24.336;2023-02-19T07:51:11;99485.31;;;16.17;39.42
26376;BME280;30544;42.196;24.336;2023-02-19T07:53:39;99480.84;;;16.16;38.92
26376;BME280;30544;42.196;24.336;2023-02-19T07:56:06;99479.44;;;16.39;38.43
26376;BME280;30544;42.196;24.336;2023-02-19T07:58:34;99474.97;;;16.33;38.82
26376;BME280;30544;42.196;24.336;2023-02-19T08:01:08;99473.59;;;16.31;38.86
26376;BME280;30544;42.196;24.336;2023-02-19T08:03:37;99464.88;;;16.27;38.67
26376;BME280;30544;42.196;24.336;2023-02-19T08:06:03;99458.19;;;16.64;38.23
26376;BME280;30544;42.196;24.336;2023-02-19T08:08:30;99464.91;;;16.47;38.75
26376;BME280;30544;42.196;24.336;2023-02-19T08:10:59;99460.97;;;16.64;38.36
26376;BME280;30544;42.196;24.336;2023-02-19T08:13:43;99451.38;;;17.05;38.46
26376;BME280;30544;42.196;24.336;2023-02-19T08:16:12;99454.75;;;17.02;38.03
26376;BME280;30544;42.196;24.336;2023-02-19T08:18:41;99453.03;;;17.11;37.51
26376;BME280;30544;42.196;24.336;2023-02-19T08:21:09;99450.66;;;17.44;37.23
26376;BME280;30544;42.196;24.336;2023-02-19T08:23:36;99435.63;;;17.84;35.93
26376;BME280;30544;42.196;24.336;2023-02-19T08:26:03;99444.97;;;17.69;35.93
26376;BME280;30544;42.196;24.336;2023-02-19T08:28:30;99452.38;;;17.94;36.04
26376;BME280;30544;42.196;24.336;2023-02-19T08:30:59;99437.97;;;18.11;35.60
26376;BME280;30544;42.196;24.336;2023-02-19T08:33:26;99446.50;;;18.30;35.24
26376;BME280;30544;42.196;24.336;2023-02-19T08:35:54;99439.56;;;18.22;34.82
26376;BME280;30544;42.196;24.336;2023-02-19T08:38:21;99442.84;;;18.34;34.86
26376;BME280;30544;42.196;24.336;2023-02-19T08:40:48;99436.34;;;18.73;34.17
26376;BME280;30544;42.196;24.336;2023-02-19T08:43:16;99436.66;;;18.96;33.87
26376;BME280;30544;42.196;24.336;2023-02-19T08:45:44;99427.47;;;18.56;34.31
26376;BME280;30544;42.196;24.336;2023-02-19T08:48:12;99424.06;;;18.64;34.05
26376;BME280;30544;42.196;24.336;2023-02-19T08:50:39;99428.75;;;18.98;34.09
26376;BME280;30544;42.196;24.336;2023-02-19T08:53:07;99429.84;;;19.26;33.44
26376;BME280;30544;42.196;24.336;2023-02-19T08:55:36;99431.69;;;19.11;33.61
26376;BME280;30544;42.196;24.336;2023-02-19T08:58:03;99421.91;;;19.33;33.24
26376;BME280;30544;42.196;24.336;2023-02-19T09:00:30;99415.56;;;19.22;33.45
26376;BME280;30544;42.196;24.336;2023-02-19T09:02:57;99401.44;;;19.70;32.95
26376;BME280;30544;42.196;24.336;2023-02-19T09:05:24;99409.41;;;19.81;32.84
26376;BME280;30544;42.196;24.336;2023-02-19T09:07:51;99408.41;;;19.53;32.33
26376;BME280;30544;42.196;24.336;2023-02-19T09:10:19;99407.22;;;19.60;31.92
26376;BME280;30544;42.196;24.336;2023-02-19T09:12:46;99409.00;;;19.50;31.77
26376;BME280;30544;42.196;24.336;2023-02-19T09:15:12;99391.34;;;19.69;31.77
26376;BME280;30544;42.196;24.336;2023-02-19T09:17:39;99393.84;;;19.89;31.60
26376;BME280;30544;42.196;24.336;2023-02-19T09:20:07;99389.72;;;20.19;31.53
26376;BME280;30544;42.196;24.336;2023-02-19T09:22:35;99388.75;;;19.91;32.58
26376;BME280;30544;42.196;24.336;2023-02-19T09:25:01;99382.97;;;19.82;32.41
26376;BME280;30544;42.196;24.336;2023-02-19T09:27:30;99377.03;;;20.35;32.26
26376;BME280;30544;42.196;24.336;2023-02-19T09:29:57;99376.59;;;20.61;31.31
26376;BME280;30544;42.196;24.336;2023-02-19T09:32:24;99374.31;;;20.49;31.55
26376;BME280;30544;42.196;24.336;2023-02-19T09:34:51;99378.06;;;20.58;31.47
26376;BME280;30544;42.196;24.336;2023-02-19T09:37:18;99373.56;;;20.25;31.38
26376;BME280;30544;42.196;24.336;2023-02-19T09:39:45;99370.78;;;20.38;31.59
26376;BME280;30544;42.196;24.336;2023-02-19T09:42:14;99375.31;;;20.21;32.08
26376;BME280;30544;42.196;24.336;2023-02-19T09:44:47;99365.00;;;20.30;31.40
26376;BME280;30544;42.196;24.336;2023-02-19T09:47:17;99365.28;;;20.14;32.00
26376;BME280;30544;42.196;24.336;2023-02-19T09:49:46;99354.56;;;20.17;31.67
26376;BME280;30544;42.196;24.336;2023-02-19T09:52:23;99353.91;;;20.85;31.44
26376;BME280;30544;42.196;24.336;2023-02-19T09:54:53;99345.81;;;20.64;30.92
26376;BME280;30544;42.196;24.336;2023-02-19T09:57:25;99346.78;;;20.73;30.48
26376;BME280;30544;42.196;24.336;2023-02-19T10:00:01;99345.31;;;20.76;31.07
26376;BME280;30544;42.196;24.336;2023-02-19T10:02:30;99344.88;;;20.55;31.36
26376;BME280;30544;42.196;24.336;2023-02-19T10:04:57;99340.31;;;20.87;31.18
26376;BME280;30544;42.196;24.336;2023-02-19T10:07:30;99332.78;;;20.68;30.84
26376;BME280;30544;42.196;24.336;2023-02-19T10:10:01;99331.16;;;20.35;31.31
26376;BME280;30544;42.196;24.336;2023-02-19T10:12:32;99335.09;;;20.66;30.92
26376;BME280;30544;42.196;24.336;2023-02-19T10:15:08;99339.91;;;21.07;30.65
26376;BME280;30544;42.196;24.336;2023-02-19T10:17:37;99316.81;;;20.91;30.43
26376;BME280;30544;42.196;24.336;2023-02-19T10:20:04;99315.88;;;21.37;30.50
26376;BME280;30544;42.196;24.336;2023-02-19T10:22:34;99314.09;;;21.27;30.49
26376;BME280;30544;42.196;24.336;2023-02-19T10:25:04;99309.19;;;21.19;30.44
26376;BME280;30544;42.196;24.336;2023-02-19T10:27:31;99303.78;;;20.95;30.47
26376;BME280;30544;42.196;24.336;2023-02-19T10:30:00;99284.91;;;21.46;29.67
26376;BME280;30544;42.196;24.336;2023-02-19T10:32:27;99286.56;;;21.47;30.20
26376;BME280;30544;42.196;24.336;2023-02-19T10:35:09;99280.91;;;21.24;30.16
26376;BME280;30544;42.196;24.336;2023-02-19T10:37:41;99273.69;;;21.99;29.39
26376;BME280;30544;42.196;24.336;2023-02-19T10:40:14;99263.28;;;22.22;29.49
26376;BME280;30544;42.196;24.336;2023-02-19T10:42:45;99258.13;;;22.24;28.97
26376;BME280;30544;42.196;24.336;2023-02-19T10:45:18;99255.06;;;22.43;28.76
26376;BME280;30544;42.196;24.336;2023-02-19T10:47:48;99253.41;;;22.50;29.14
26376;BME280;30544;42.196;24.336;2023-02-19T10:50:20;99239.41;;;22.06;28.82
26376;BME280;30544;42.196;24.336;2023-02-19T10:52:52;99230.56;;;22.30;28.55
26376;BME280;30544;42.196;24.336;2023-02-19T10:55:30;99230.66;;;22.16;28.49
26376;BME280;30544;42.196;24.336;2023-02-19T10:58:22;99226.88;;;22.20;28.92
26376;BME280;30544;42.196;24.336;2023-02-19T11:01:14;99223.34;;;22.15;28.61
26376;BME280;30544;42.196;24.336;2023-02-19T11:03:41;99221.03;;;22.17;28.94
26376;BME280;30544;42.196;24.336;2023-02-19T11:06:10;99216.50;;;22.07;29.01
26376;BME280;30544;42.196;24.336;2023-02-19T11:08:50;99211.31;;;22.01;29.21
26376;BME280;30544;42.196;24.336;2023-02-19T11:11:25;99211.22;;;21.92;29.08
26376;BME280;30544;42.196;24.336;2023-02-19T11:13:55;99208.16;;;22.02;29.53
26376;BME280;30544;42.196;24.336;2023-02-19T11:16:36;99199.06;;;22.05;28.93
26376;BME280;30544;42.196;24.336;2023-02-19T11:19:04;99193.31;;;21.97;28.90
26376;BME280;30544;42.196;24.336;2023-02-19T11:21:31;99193.44;;;22.14;29.29
26376;BME280;30544;42.196;24.336;2023-02-19T11:23:59;99181.88;;;22.24;28.99
26376;BME280;30544;42.196;24.336;2023-02-19T11:26:31;99180.13;;;22.06;28.70
26376;BME280;30544;42.196;24.336;2023-02-19T11:29:10;99179.13;;;22.41;28.81
26376;BME280;30544;42.196;24.336;2023-02-19T11:31:39;99167.25;;;22.31;28.86
26376;BME280;30544;42.196;24.336;2023-02-19T11:34:23;99157.75;;;22.75;27.80
26376;BME280;30544;42.196;24.336;2023-02-19T11:37:07;99155.19;;;22.39;28.10
26376;BME280;30544;42.196;24.336;2023-02-19T11:39:34;99149.84;;;22.37;28.40
26376;BME280;30544;42.196;24.336;2023-02-19T11:42:13;99142.88;;;22.43;28.88
26376;BME280;30544;42.196;24.336;2023-02-19T11:44:54;99132.47;;;22.13;29.31
26376;BME280;30544;42.196;24.336;2023-02-19T11:47:51;99137.44;;;22.64;29.00
26376;BME280;30544;42.196;24.336;2023-02-19T11:50:26;99140.22;;;22.47;28.80
26376;BME280;30544;42.196;24.336;2023-02-19T11:53:08;99137.28;;;22.61;28.63
26376;BME280;30544;42.196;24.336;2023-02-19T11:55:50;99129.53;;;22.18;29.26
26376;BME280;30544;42.196;24.336;2023-02-19T11:58:43;99125.22;;;22.29;29.18
26376;BME280;30544;42.196;24.336;2023-02-19T12:01:21;99114.00;;;22.55;28.66
26376;BME280;30544;42.196;24.336;2023-02-19T12:04:11;99114.88;;;22.73;28.47
26376;BME280;30544;42.196;24.336;2023-02-19T12:06:53;99112.69;;;22.61;28.53
26376;BME280;30544;42.196;24.336;2023-02-19T12:09:38;99108.50;;;22.41;28.86
26376;BME280;30544;42.196;24.336;2023-02-19T12:12:25;99103.56;;;22.73;28.31
26376;BME280;30544;42.196;24.336;2023-02-19T12:15:21;99103.59;;;23.07;28.03
26376;BME280;30544;42.196;24.336;2023-02-19T12:18:04;99106.81;;;22.40;28.60
26376;BME280;30544;42.196;24.336;2023-02-19T12:20:42;99099.53;;;22.57;28.99
26376;BME280;30544;42.196;24.336;2023-02-19T12:23:46;99101.03;;;22.63;28.72
26376;BME280;30544;42.196;24.336;2023-02-19T12:26:21;99086.81;;;22.85;28.47
26376;BME280;30544;42.196;24.336;2023-02-19T12:29:06;99082.28;;;22.75;28.46
26376;BME280;30544;42.196;24.336;2023-02-19T12:32:11;99085.94;;;22.76;28.34
26376;BME280;30544;42.196;24.336;2023-02-19T12:34:58;99071.31;;;22.74;28.17
26376;BME280;30544;42.196;24.336;2023-02-19T12:37:42;99071.63;;;22.81;28.59
26376;BME280;30544;42.196;24.336;2023-02-19T12:40:25;99056.34;;;23.08;27.94
26376;BME280;30544;42.196;24.336;2023-02-19T12:42:58;99048.72;;;23.08;28.05
26376;BME280;30544;42.196;24.336;2023-02-19T12:45:31;99046.06;;;23.03;27.78
26376;BME280;30544;42.196;24.336;2023-02-19T12:48:05;99045.34;;;23.15;27.59
26376;BME280;30544;42.196;24.336;2023-02-19T12:50:34;99039.53;;;22.42;28.07
26376;BME280;30544;42.196;24.336;2023-02-19T12:53:06;99042.53;;;22.55;28.61
26376;BME280;30544;42.196;24.336;2023-02-19T12:55:38;99039.06;;;22.92;28.01
26376;BME280;30544;42.196;24.336;2023-02-19T12:58:12;99031.84;;;23.29;27.60
26376;BME280;30544;42.196;24.336;2023-02-19T13:00:43;99032.53;;;23.18;27.95
26376;BME280;30544;42.196;24.336;2023-02-19T13:03:16;99028.75;;;22.96;27.48
26376;BME280;30544;42.196;24.336;2023-02-19T13:05:50;99013.47;;;22.89;28.08
26376;BME280;30544;42.196;24.336;2023-02-19T13:08:23;99014.78;;;22.83;28.09
26376;BME280;30544;42.196;24.336;2023-02-19T13:10:56;99006.13;;;22.96;28.14
26376;BME280;30544;42.196;24.336;2023-02-19T13:13:28;99011.78;;;22.96;27.34
26376;BME280;30544;42.196;24.336;2023-02-19T13:15:59;99004.13;;;22.97;27.67